createdAt,value
2018-02-14T00:00:47.028Z,85.62
2018-02-14T00:01:46.838Z,85.72
2018-02-14T00:03:40.103Z,85.72
2018-02-14T00:04:40.010Z,85.91
2018-02-14T00:06:33.256Z,86.47
2018-02-14T00:07:33.178Z,86.47
2018-02-14T00:09:26.443Z,86.47
2018-02-14T00:10:26.348Z,86.38
2018-02-14T00:12:19.612Z,86.57
2018-02-14T00:13:19.518Z,86.29
2018-02-14T00:15:12.772Z,86.94
2018-02-14T00:16:12.690Z,86.85
2018-02-14T00:18:05.956Z,86.94
2018-02-14T00:19:05.863Z,87.13
2018-02-14T00:20:59.104Z,86.76
2018-02-14T00:21:59.027Z,86.66
2018-02-14T00:23:52.294Z,86.57
2018-02-14T00:24:52.202Z,86.38
2018-02-14T00:26:45.444Z,86.76
2018-02-14T00:27:45.363Z,86.57
2018-02-14T00:29:38.631Z,86.85
2018-02-14T00:30:38.538Z,86.76
2018-02-14T00:32:31.803Z,87.04
2018-02-14T00:33:31.705Z,87.42
2018-02-14T00:35:24.957Z,87.04
2018-02-14T00:36:24.881Z,86.57
2018-02-14T00:38:18.144Z,86.94
2018-02-14T00:39:18.049Z,86.76
2018-02-14T00:41:11.407Z,86.94
2018-02-14T00:42:11.328Z,86.94
2018-02-14T00:44:04.587Z,87.42
2018-02-14T00:45:04.491Z,87.42
2018-02-14T00:46:57.737Z,87.23
2018-02-14T00:47:57.664Z,87.23
2018-02-14T00:49:50.922Z,87.13
2018-02-14T00:50:50.824Z,87.13
2018-02-14T00:52:44.087Z,87.32
2018-02-14T00:53:43.992Z,87.42
2018-02-14T00:55:38.353Z,87.42
2018-02-14T00:56:38.162Z,87.42
2018-02-14T00:58:31.427Z,87.51
2018-02-14T00:59:31.335Z,87.98
2018-02-14T01:01:24.577Z,87.89
2018-02-14T01:02:24.504Z,88.27
2018-02-14T01:04:17.766Z,88.36
2018-02-14T01:05:17.671Z,88.55
2018-02-14T01:07:10.914Z,88.08
2018-02-14T01:08:10.837Z,87.98
2018-02-14T01:10:04.096Z,87.89
2018-02-14T01:11:03.999Z,88.08
2018-02-14T01:12:57.258Z,88.08
2018-02-14T01:13:57.163Z,87.98
2018-02-14T01:15:50.404Z,88.17
2018-02-14T01:16:50.330Z,88.17
2018-02-14T01:18:43.592Z,88.08
2018-02-14T01:19:43.495Z,87.98
2018-02-14T01:21:36.744Z,87.70
2018-02-14T01:22:36.664Z,87.89
2018-02-14T01:24:29.930Z,87.98
2018-02-14T01:25:29.831Z,88.08
2018-02-14T01:27:23.077Z,87.98
2018-02-14T01:28:23.000Z,87.98
2018-02-14T01:30:16.256Z,88.17
2018-02-14T01:31:16.162Z,87.98
2018-02-14T01:33:10.037Z,88.08
2018-02-14T01:34:09.332Z,88.08
2018-02-14T01:36:02.694Z,88.27
2018-02-14T01:37:02.500Z,88.27
2018-02-14T01:38:55.756Z,88.17
2018-02-14T01:39:55.658Z,88.08
2018-02-14T01:41:48.908Z,88.36
2018-02-14T01:42:48.831Z,88.08
2018-02-14T01:44:42.207Z,88.74
2018-02-14T01:45:41.998Z,88.36
2018-02-14T01:47:35.246Z,88.46
2018-02-14T01:48:35.168Z,88.65
2018-02-14T01:50:28.424Z,88.46
2018-02-14T01:51:28.324Z,88.32
2018-02-14T01:53:21.591Z,88.55
2018-02-14T01:54:21.496Z,88.55
2018-02-14T01:56:14.740Z,89.50
2018-02-14T01:57:14.664Z,89.26
2018-02-14T01:59:07.929Z,88.98
2018-02-14T02:00:07.833Z,88.98
2018-02-14T02:02:01.068Z,89.26
2018-02-14T02:03:00.993Z,89.17
2018-02-14T02:04:54.368Z,88.98
2018-02-14T02:05:54.147Z,89.36
2018-02-14T02:07:47.401Z,89.54
2018-02-14T02:08:47.324Z,89.54
2018-02-14T02:10:40.703Z,89.17
2018-02-14T02:11:40.485Z,89.54
2018-02-14T02:13:33.864Z,89.36
2018-02-14T02:14:33.647Z,89.73
2018-02-14T02:16:27.002Z,89.92
2018-02-14T02:17:26.798Z,89.73
2018-02-14T02:19:20.054Z,90.11
2018-02-14T02:20:19.954Z,90.02
2018-02-14T02:22:13.202Z,89.83
2018-02-14T02:23:13.125Z,90.11
2018-02-14T02:25:06.391Z,90.02
2018-02-14T02:26:06.295Z,90.02
2018-02-14T02:27:59.540Z,90.11
2018-02-14T02:28:59.462Z,90.40
2018-02-14T02:30:52.725Z,90.30
2018-02-14T02:31:52.629Z,90.40
2018-02-14T02:33:45.898Z,90.49
2018-02-14T02:34:45.797Z,91.15
2018-02-14T02:36:39.040Z,90.87
2018-02-14T02:37:38.963Z,90.87
2018-02-14T02:39:32.226Z,90.59
2018-02-14T02:40:32.132Z,90.96
2018-02-14T02:42:25.402Z,90.87
2018-02-14T02:43:25.324Z,90.87
2018-02-14T02:45:18.594Z,90.96
2018-02-14T02:46:18.495Z,91.15
2018-02-14T02:48:11.743Z,90.87
2018-02-14T02:49:11.670Z,90.87
2018-02-14T02:51:04.927Z,90.68
2018-02-14T02:52:04.831Z,90.40
2018-02-14T02:53:58.086Z,90.96
2018-02-14T02:54:57.989Z,90.49
2018-02-14T02:56:51.225Z,91.06
2018-02-14T02:57:51.148Z,90.87
2018-02-14T02:59:44.412Z,90.77
2018-02-14T03:00:44.317Z,90.49
2018-02-14T03:02:37.565Z,91.25
2018-02-14T03:03:37.488Z,91.25
2018-02-14T03:05:30.751Z,91.15
2018-02-14T03:06:30.655Z,90.96
2018-02-14T03:08:23.899Z,91.06
2018-02-14T03:09:23.824Z,91.15
2018-02-14T03:11:17.199Z,91.44
2018-02-14T03:12:16.988Z,91.44
2018-02-14T03:14:10.254Z,91.82
2018-02-14T03:15:10.156Z,91.72
2018-02-14T03:17:03.403Z,91.63
2018-02-14T03:18:03.329Z,91.53
2018-02-14T03:19:56.585Z,91.34
2018-02-14T03:20:56.488Z,91.72
2018-02-14T03:22:49.721Z,91.53
2018-02-14T03:23:49.646Z,91.91
2018-02-14T03:25:42.908Z,91.53
2018-02-14T03:26:42.812Z,91.63
2018-02-14T03:28:36.055Z,91.53
2018-02-14T03:29:35.980Z,91.63
2018-02-14T03:31:29.258Z,92.19
2018-02-14T03:32:29.152Z,91.15
2018-02-14T03:34:22.419Z,91.15
2018-02-14T03:35:22.320Z,91.25
2018-02-14T03:37:15.573Z,91.63
2018-02-14T03:38:15.494Z,91.44
2018-02-14T03:40:08.750Z,91.53
2018-02-14T03:41:08.656Z,92.00
2018-02-14T03:43:01.899Z,92.29
2018-02-14T03:44:01.824Z,91.53
2018-02-14T03:45:55.089Z,91.91
2018-02-14T03:46:54.991Z,91.53
2018-02-14T03:48:48.349Z,91.63
2018-02-14T03:49:48.158Z,91.53
2018-02-14T03:51:41.421Z,91.53
2018-02-14T03:52:41.328Z,91.53
2018-02-14T03:54:34.591Z,91.82
2018-02-14T03:55:34.494Z,91.82
2018-02-14T03:57:27.743Z,91.72
2018-02-14T03:58:27.661Z,91.63
2018-02-14T04:00:21.063Z,91.34
2018-02-14T04:01:20.821Z,91.44
2018-02-14T04:03:14.062Z,91.91
2018-02-14T04:04:13.986Z,91.82
2018-02-14T04:06:07.251Z,91.72
2018-02-14T04:07:07.156Z,91.44
2018-02-14T04:09:00.398Z,91.53
2018-02-14T04:10:00.322Z,92.00
2018-02-14T04:11:53.576Z,91.82
2018-02-14T04:12:53.480Z,91.72
2018-02-14T04:14:46.744Z,91.72
2018-02-14T04:15:46.649Z,91.25
2018-02-14T04:17:39.892Z,92.10
2018-02-14T04:18:39.816Z,91.34
2018-02-14T04:20:33.072Z,91.25
2018-02-14T04:21:32.974Z,91.72
2018-02-14T04:23:26.230Z,91.44
2018-02-14T04:24:26.145Z,90.87
2018-02-14T04:26:19.529Z,91.15
2018-02-14T04:27:19.323Z,91.53
2018-02-14T04:29:12.567Z,91.44
2018-02-14T04:30:12.490Z,91.72
2018-02-14T04:32:05.754Z,91.53
2018-02-14T04:33:05.659Z,91.72
2018-02-14T04:34:58.921Z,91.44
2018-02-14T04:35:58.826Z,92.47
2018-02-14T04:37:52.072Z,91.91
2018-02-14T04:38:51.994Z,92.10
2018-02-14T04:40:45.251Z,92.00
2018-02-14T04:41:45.153Z,91.91
2018-02-14T04:43:38.512Z,91.72
2018-02-14T04:44:38.322Z,92.10
2018-02-14T04:46:31.698Z,91.53
2018-02-14T04:47:31.491Z,91.63
2018-02-14T04:49:24.735Z,92.00
2018-02-14T04:50:24.659Z,92.00
2018-02-14T04:52:17.923Z,92.00
2018-02-14T04:53:17.827Z,91.82
2018-02-14T04:55:11.204Z,92.00
2018-02-14T04:56:10.995Z,92.47
2018-02-14T04:58:04.237Z,92.57
2018-02-14T04:59:04.159Z,91.82
2018-02-14T05:00:57.539Z,92.00
2018-02-14T05:01:57.324Z,92.10
2018-02-14T05:03:50.571Z,91.91
2018-02-14T05:04:50.495Z,92.00
2018-02-14T05:06:43.759Z,91.82
2018-02-14T05:07:43.662Z,92.47
2018-02-14T05:09:36.906Z,92.47
2018-02-14T05:10:36.830Z,92.29
2018-02-14T05:12:30.096Z,92.29
2018-02-14T05:13:29.998Z,92.38
2018-02-14T05:15:23.259Z,92.29
2018-02-14T05:16:23.163Z,92.47
2018-02-14T05:18:16.408Z,92.76
2018-02-14T05:19:16.331Z,92.66
2018-02-14T05:21:09.661Z,92.47
2018-02-14T05:22:09.550Z,92.61
2018-02-14T05:24:02.799Z,92.66
2018-02-14T05:25:02.724Z,92.66
2018-02-14T05:26:55.980Z,92.61
2018-02-14T05:27:55.887Z,92.14
2018-02-14T05:29:49.120Z,92.38
2018-02-14T05:30:49.042Z,92.47
2018-02-14T05:32:42.304Z,92.94
2018-02-14T05:33:42.209Z,92.76
2018-02-14T05:35:35.587Z,92.29
2018-02-14T05:36:35.419Z,92.90
2018-02-14T05:38:28.619Z,93.13
2018-02-14T05:39:28.542Z,92.38
2018-02-14T05:41:21.806Z,92.29
2018-02-14T05:42:21.709Z,92.05
2018-02-14T05:44:14.953Z,92.85
2018-02-14T05:45:14.874Z,92.76
2018-02-14T05:47:08.139Z,93.04
2018-02-14T05:48:08.041Z,92.85
2018-02-14T05:50:01.406Z,92.33
2018-02-14T05:51:01.328Z,92.33
2018-02-14T05:52:54.590Z,92.24
2018-02-14T05:53:54.494Z,92.61
2018-02-14T05:55:47.758Z,92.85
2018-02-14T05:56:47.661Z,92.43
2018-02-14T05:58:40.899Z,92.61
2018-02-14T05:59:40.828Z,92.61
2018-02-14T06:01:34.078Z,92.43
2018-02-14T06:02:33.984Z,92.90
2018-02-14T06:04:27.218Z,92.61
2018-02-14T06:05:27.139Z,92.71
2018-02-14T06:07:20.482Z,92.43
2018-02-14T06:08:20.296Z,92.61
2018-02-14T06:10:13.546Z,92.61
2018-02-14T06:11:13.466Z,92.90
2018-02-14T06:13:06.720Z,92.52
2018-02-14T06:14:06.622Z,92.90
2018-02-14T06:15:59.998Z,92.52
2018-02-14T06:16:59.780Z,92.71
2018-02-14T06:18:53.011Z,92.71
2018-02-14T06:19:52.934Z,92.61
2018-02-14T06:21:46.256Z,92.71
2018-02-14T06:22:46.089Z,92.43
2018-02-14T06:24:39.410Z,92.43
2018-02-14T06:25:39.331Z,92.71
2018-02-14T06:27:32.578Z,92.05
2018-02-14T06:28:32.479Z,92.05
2018-02-14T06:30:25.716Z,92.14
2018-02-14T06:31:25.640Z,92.24
2018-02-14T06:33:18.892Z,92.14
2018-02-14T06:34:18.797Z,92.24
2018-02-14T06:36:12.171Z,92.05
2018-02-14T06:37:11.948Z,92.33
2018-02-14T06:39:05.307Z,92.43
2018-02-14T06:40:05.104Z,92.05
2018-02-14T06:41:58.359Z,91.77
2018-02-14T06:42:58.258Z,91.96
2018-02-14T06:44:51.491Z,91.77
2018-02-14T06:45:51.412Z,91.77
2018-02-14T06:47:44.662Z,92.14
2018-02-14T06:48:44.567Z,92.52
2018-02-14T06:50:37.810Z,92.52
2018-02-14T06:51:37.737Z,91.86
2018-02-14T06:53:31.114Z,91.96
2018-02-14T06:54:30.889Z,91.77
2018-02-14T06:56:24.140Z,91.96
2018-02-14T06:57:24.045Z,91.96
2018-02-14T06:59:17.400Z,91.77
2018-02-14T07:00:17.325Z,91.86
2018-02-14T07:02:10.578Z,91.77
2018-02-14T07:03:10.477Z,91.91
2018-02-14T07:05:03.836Z,91.44
2018-02-14T07:06:03.632Z,91.20
2018-02-14T07:07:56.884Z,91.67
2018-02-14T07:08:56.788Z,91.53
2018-02-14T07:10:50.062Z,91.06
2018-02-14T07:11:49.955Z,91.06
2018-02-14T07:13:43.223Z,90.87
2018-02-14T07:14:43.127Z,91.11
2018-02-14T07:16:36.378Z,90.77
2018-02-14T07:17:36.283Z,91.06
2018-02-14T07:19:29.520Z,91.25
2018-02-14T07:20:29.449Z,90.30
2018-02-14T07:22:22.702Z,90.40
2018-02-14T07:23:22.603Z,90.30
2018-02-14T07:25:15.838Z,90.77
2018-02-14T07:26:15.761Z,90.21
2018-02-14T07:28:09.013Z,90.21
2018-02-14T07:29:08.937Z,89.92
2018-02-14T07:31:02.274Z,89.92
2018-02-14T07:32:02.071Z,89.92
2018-02-14T07:33:55.449Z,89.36
2018-02-14T07:34:55.326Z,89.17
2018-02-14T07:36:48.578Z,88.79
2018-02-14T07:37:48.481Z,88.98
2018-02-14T07:39:41.716Z,89.07
2018-02-14T07:40:41.661Z,88.79
2018-02-14T07:42:34.901Z,88.51
2018-02-14T07:43:34.803Z,88.23
2018-02-14T07:45:28.166Z,88.23
2018-02-14T07:46:27.961Z,88.13
2018-02-14T07:48:21.343Z,87.56
2018-02-14T07:49:21.117Z,87.47
2018-02-14T07:51:14.356Z,86.99
2018-02-14T07:52:14.284Z,87.09
2018-02-14T07:54:07.532Z,87.09
2018-02-14T07:55:07.437Z,87.37
2018-02-14T07:57:00.688Z,87.37
2018-02-14T07:58:00.592Z,86.71
2018-02-14T07:59:53.951Z,86.43
2018-02-14T08:00:53.750Z,86.33
2018-02-14T08:02:47.127Z,86.29
2018-02-14T08:03:46.908Z,86.52
2018-02-14T08:05:40.264Z,86.66
2018-02-14T08:06:40.069Z,86.19
2018-02-14T08:08:33.571Z,86.00
2018-02-14T08:09:33.329Z,86.00
2018-02-14T08:11:26.563Z,85.81
2018-02-14T08:12:26.486Z,85.62
2018-02-14T08:14:19.742Z,85.34
2018-02-14T08:15:19.646Z,85.24
2018-02-14T08:17:13.020Z,84.58
2018-02-14T08:18:12.799Z,84.11
2018-02-14T08:20:07.032Z,83.54
2018-02-14T08:21:06.958Z,83.17
2018-02-14T08:23:00.215Z,83.36
2018-02-14T08:24:00.117Z,82.98
2018-02-14T08:25:53.476Z,82.88
2018-02-14T08:26:53.328Z,82.79
2018-02-14T08:28:46.584Z,82.22
2018-02-14T08:29:46.485Z,81.93
2018-02-14T08:31:39.719Z,80.99
2018-02-14T08:32:39.643Z,80.56
2018-02-14T08:34:32.908Z,80.56
2018-02-14T08:35:32.809Z,80.08
2018-02-14T08:37:26.074Z,79.14
2018-02-14T08:38:25.979Z,78.39
2018-02-14T08:40:19.214Z,77.82
2018-02-14T08:41:19.138Z,77.76
2018-02-14T08:43:12.433Z,76.34
2018-02-14T08:44:12.339Z,75.49
2018-02-14T08:46:05.586Z,72.60
2018-02-14T08:47:05.507Z,71.84
2018-02-14T08:48:58.771Z,69.70
2018-02-14T08:49:58.676Z,69.17
2018-02-14T08:51:51.917Z,67.18
2018-02-14T08:52:51.841Z,65.56
2018-02-14T08:54:45.098Z,65.28
2018-02-14T08:55:45.006Z,65.66
2018-02-14T08:57:38.273Z,64.90
2018-02-14T08:58:38.178Z,64.52
2018-02-14T09:00:31.424Z,64.08
2018-02-14T09:01:31.346Z,64.08
2018-02-14T09:03:24.613Z,63.60
2018-02-14T09:04:24.514Z,63.01
2018-02-14T09:06:17.754Z,63.39
2018-02-14T09:07:17.681Z,63.60
2018-02-14T09:09:11.066Z,62.47
2018-02-14T09:10:10.858Z,61.33
2018-02-14T09:12:04.099Z,60.86
2018-02-14T09:13:04.025Z,60.19
2018-02-14T09:14:57.290Z,60.28
2018-02-14T09:15:57.195Z,60.03
2018-02-14T09:17:50.578Z,58.77
2018-02-14T09:18:50.369Z,59.53
2018-02-14T09:20:43.734Z,61.14
2018-02-14T09:21:43.541Z,61.14
2018-02-14T09:23:36.814Z,61.05
2018-02-14T09:24:36.725Z,60.10
2018-02-14T09:26:29.979Z,59.46
2018-02-14T09:27:29.908Z,58.70
2018-02-14T09:29:23.175Z,58.89
2018-02-14T09:30:23.085Z,59.08
2018-02-14T09:32:16.350Z,58.23
2018-02-14T09:33:16.272Z,57.85
2018-02-14T09:35:09.548Z,58.14
2018-02-14T09:36:09.455Z,57.76
2018-02-14T09:38:02.730Z,56.62
2018-02-14T09:39:02.639Z,56.15
2018-02-14T09:40:55.894Z,55.60
2018-02-14T09:41:55.822Z,53.70
2018-02-14T09:43:49.097Z,53.70
2018-02-14T09:44:49.007Z,54.37
2018-02-14T09:46:42.267Z,53.64
2018-02-14T09:47:42.195Z,52.59
2018-02-14T09:49:35.471Z,51.62
2018-02-14T09:50:35.381Z,51.90
2018-02-14T09:52:28.644Z,52.22
2018-02-14T09:53:28.569Z,50.53
2018-02-14T09:55:21.845Z,51.36
2018-02-14T09:56:21.756Z,51.64
2018-02-14T09:58:15.044Z,50.89
2018-02-14T09:59:14.942Z,50.67
2018-02-14T10:01:08.207Z,52.92
2018-02-14T10:02:08.139Z,54.15
2018-02-14T10:04:01.425Z,54.08
2018-02-14T10:05:01.339Z,53.23
2018-02-14T10:06:54.594Z,50.91
2018-02-14T10:07:54.524Z,49.77
2018-02-14T10:09:47.802Z,49.27
2018-02-14T10:10:47.715Z,50.03
2018-02-14T10:12:40.982Z,50.51
2018-02-14T10:13:40.912Z,51.72
2018-02-14T10:15:34.186Z,51.74
2018-02-14T10:16:34.122Z,51.67
2018-02-14T10:18:27.434Z,49.18
2018-02-14T10:19:27.344Z,50.22
2018-02-14T10:21:20.589Z,51.48
2018-02-14T10:22:20.516Z,50.05
2018-02-14T10:24:13.784Z,48.08
2018-02-14T10:25:13.696Z,47.71
2018-02-14T10:27:07.059Z,49.08
2018-02-14T10:28:06.869Z,51.43
2018-02-14T10:30:00.150Z,52.85
2018-02-14T10:31:00.051Z,52.95
2018-02-14T10:32:53.296Z,53.14
2018-02-14T10:33:53.223Z,53.04
2018-02-14T10:35:46.609Z,52.28
2018-02-14T10:36:46.410Z,52.95
2018-02-14T10:38:39.685Z,52.92
2018-02-14T10:39:39.596Z,54.08
2018-02-14T10:41:32.836Z,53.52
2018-02-14T10:42:32.772Z,53.52
2018-02-14T10:44:26.042Z,52.66
2018-02-14T10:45:25.950Z,52.56
2018-02-14T10:47:19.220Z,51.62
2018-02-14T10:48:19.141Z,51.50
2018-02-14T10:50:12.407Z,51.33
2018-02-14T10:51:12.317Z,50.89
2018-02-14T10:53:05.563Z,49.53
2018-02-14T10:54:05.495Z,50.76
2018-02-14T10:55:58.764Z,51.05
2018-02-14T10:56:58.718Z,51.62
2018-02-14T10:58:51.947Z,50.29
2018-02-14T10:59:51.852Z,50.48
2018-02-14T11:01:45.108Z,49.72
2018-02-14T11:02:45.043Z,49.65
2018-02-14T11:04:38.322Z,48.89
2018-02-14T11:05:38.234Z,48.41
2018-02-14T11:07:31.480Z,47.97
2018-02-14T11:08:31.406Z,47.94
2018-02-14T11:10:24.679Z,49.29
2018-02-14T11:11:24.588Z,48.25
2018-02-14T11:13:17.833Z,47.20
2018-02-14T11:14:17.763Z,47.68
2018-02-14T11:16:11.040Z,48.32
2018-02-14T11:17:10.953Z,49.79
2018-02-14T11:19:04.219Z,52.16
2018-02-14T11:20:04.131Z,53.49
2018-02-14T11:21:57.501Z,54.88
2018-02-14T11:22:57.333Z,55.74
2018-02-14T11:24:50.608Z,56.78
2018-02-14T11:25:50.514Z,56.78
2018-02-14T11:27:43.761Z,56.59
2018-02-14T11:28:43.692Z,57.64
2018-02-14T11:30:36.955Z,58.01
2018-02-14T11:31:36.863Z,57.47
2018-02-14T11:33:30.107Z,56.78
2018-02-14T11:34:30.038Z,55.83
2018-02-14T11:36:23.434Z,53.30
2018-02-14T11:37:23.334Z,51.97
2018-02-14T11:39:16.603Z,50.45
2018-02-14T11:40:16.506Z,49.51
2018-02-14T11:42:09.753Z,49.88
2018-02-14T11:43:09.704Z,49.51
2018-02-14T11:45:02.973Z,48.27
2018-02-14T11:46:02.864Z,48.27
2018-02-14T11:47:56.109Z,48.08
2018-02-14T11:48:56.036Z,48.65
2018-02-14T11:50:49.425Z,48.46
2018-02-14T11:51:49.334Z,48.08
2018-02-14T11:53:42.590Z,47.52
2018-02-14T11:54:42.514Z,47.52
2018-02-14T11:56:35.787Z,47.61
2018-02-14T11:57:35.696Z,47.80
2018-02-14T11:59:28.972Z,47.71
2018-02-14T12:00:28.861Z,47.99
2018-02-14T12:02:22.111Z,47.52
2018-02-14T12:03:22.039Z,47.89
2018-02-14T12:05:15.426Z,47.42
2018-02-14T12:06:15.343Z,47.42
2018-02-14T12:08:10.436Z,47.89
2018-02-14T12:09:10.365Z,47.61
2018-02-14T12:11:03.636Z,47.61
2018-02-14T12:12:03.535Z,47.61
2018-02-14T12:13:56.782Z,47.61
2018-02-14T12:14:56.702Z,47.89
2018-02-14T12:16:49.969Z,47.61
2018-02-14T12:17:49.877Z,47.61
2018-02-14T12:19:43.164Z,47.42
2018-02-14T12:20:43.070Z,46.75
2018-02-14T12:22:36.312Z,47.32
2018-02-14T12:23:36.239Z,47.42
2018-02-14T12:25:29.514Z,47.52
2018-02-14T12:26:29.420Z,47.42
2018-02-14T12:28:22.661Z,47.42
2018-02-14T12:29:22.590Z,47.61
2018-02-14T12:31:15.852Z,47.61
2018-02-14T12:32:15.763Z,47.61
2018-02-14T12:34:09.031Z,46.66
2018-02-14T12:35:08.937Z,46.66
2018-02-14T12:37:02.180Z,46.28
2018-02-14T12:38:02.103Z,46.56
2018-02-14T12:39:55.367Z,46.56
2018-02-14T12:40:55.274Z,46.47
2018-02-14T12:42:48.522Z,46.19
2018-02-14T12:43:48.447Z,46.28
2018-02-14T12:45:41.715Z,46.56
2018-02-14T12:46:41.614Z,46.56
2018-02-14T12:48:34.867Z,46.66
2018-02-14T12:49:34.788Z,46.09
2018-02-14T12:51:28.047Z,46.47
2018-02-14T12:52:27.956Z,47.04
2018-02-14T12:54:21.242Z,46.66
2018-02-14T12:55:21.130Z,47.04
2018-02-14T12:57:14.373Z,47.44
2018-02-14T12:58:14.301Z,46.49
2018-02-14T13:00:07.575Z,46.59
2018-02-14T13:01:07.485Z,46.49
2018-02-14T13:03:00.725Z,46.40
2018-02-14T13:04:00.653Z,45.92
2018-02-14T13:05:53.915Z,46.28
2018-02-14T13:06:53.824Z,46.47
2018-02-14T13:08:47.069Z,46.59
2018-02-14T13:09:46.996Z,46.78
2018-02-14T13:11:40.261Z,46.59
2018-02-14T13:12:40.167Z,46.69
2018-02-14T13:14:33.440Z,46.11
2018-02-14T13:15:33.342Z,46.11
2018-02-14T13:17:26.592Z,46.59
2018-02-14T13:18:26.520Z,46.49
2018-02-14T13:20:19.910Z,47.34
2018-02-14T13:21:19.706Z,47.53
2018-02-14T13:23:12.945Z,46.69
2018-02-14T13:24:12.878Z,46.49
2018-02-14T13:26:07.145Z,45.73
2018-02-14T13:27:07.049Z,45.36
2018-02-14T13:29:00.290Z,45.54
2018-02-14T13:30:00.217Z,45.45
2018-02-14T13:31:53.479Z,45.36
2018-02-14T13:32:53.388Z,45.45
2018-02-14T13:34:46.661Z,46.21
2018-02-14T13:35:46.558Z,46.30
2018-02-14T13:37:39.818Z,46.30
2018-02-14T13:38:39.747Z,46.30
2018-02-14T13:40:33.133Z,45.64
2018-02-14T13:41:32.929Z,46.11
2018-02-14T13:43:26.294Z,44.98
2018-02-14T13:44:26.110Z,44.60
2018-02-14T13:46:19.431Z,44.31
2018-02-14T13:47:19.338Z,44.02
2018-02-14T13:49:12.585Z,43.93
2018-02-14T13:50:12.513Z,43.93
2018-02-14T13:52:05.780Z,44.21
2018-02-14T13:53:05.688Z,44.21
2018-02-14T13:54:59.069Z,45.09
2018-02-14T13:55:58.860Z,45.45
2018-02-14T13:57:52.147Z,45.26
2018-02-14T13:58:52.027Z,45.83
2018-02-14T14:00:45.416Z,46.11
2018-02-14T14:01:45.204Z,46.11
2018-02-14T14:03:38.450Z,46.21
2018-02-14T14:04:38.375Z,46.11
2018-02-14T14:06:31.759Z,45.64
2018-02-14T14:07:31.545Z,46.02
2018-02-14T14:09:24.792Z,45.17
2018-02-14T14:10:24.720Z,44.69
2018-02-14T14:12:17.992Z,45.09
2018-02-14T14:13:17.901Z,44.31
2018-02-14T14:15:11.164Z,44.81
2018-02-14T14:16:11.071Z,44.05
2018-02-14T14:18:04.329Z,44.34
2018-02-14T14:19:04.257Z,44.02
2018-02-14T14:20:57.638Z,43.17
2018-02-14T14:21:57.434Z,42.98
2018-02-14T14:23:50.673Z,43.74
2018-02-14T14:24:50.599Z,43.55
2018-02-14T14:26:43.862Z,43.84
2018-02-14T14:27:43.770Z,43.57
2018-02-14T14:29:37.016Z,43.19
2018-02-14T14:30:36.946Z,43.19
2018-02-14T14:32:30.206Z,41.94
2018-02-14T14:33:30.116Z,42.05
2018-02-14T14:35:23.435Z,41.77
2018-02-14T14:36:23.343Z,41.46
2018-02-14T14:38:16.708Z,41.56
2018-02-14T14:39:16.526Z,41.75
2018-02-14T14:41:09.910Z,41.01
2018-02-14T14:42:09.710Z,41.01
2018-02-14T14:44:02.958Z,41.18
2018-02-14T14:45:02.876Z,41.08
2018-02-14T14:46:56.138Z,40.52
2018-02-14T14:47:56.045Z,40.14
2018-02-14T14:49:49.292Z,40.33
2018-02-14T14:50:49.222Z,40.99
2018-02-14T14:52:42.495Z,41.08
2018-02-14T14:53:42.404Z,41.08
2018-02-14T14:55:35.679Z,41.08
2018-02-14T14:56:35.587Z,41.08
2018-02-14T14:58:28.829Z,41.37
2018-02-14T14:59:28.769Z,41.37
2018-02-14T15:01:22.022Z,42.60
2018-02-14T15:02:21.934Z,42.98
2018-02-14T15:04:15.176Z,43.36
2018-02-14T15:05:15.098Z,44.02
2018-02-14T15:07:08.363Z,46.30
2018-02-14T15:08:08.273Z,46.59
2018-02-14T15:10:01.518Z,48.11
2018-02-14T15:11:01.446Z,48.11
2018-02-14T15:12:54.708Z,48.39
2018-02-14T15:13:54.646Z,48.20
2018-02-14T15:15:47.880Z,48.49
2018-02-14T15:16:47.788Z,48.11
2018-02-14T15:18:41.048Z,48.11
2018-02-14T15:19:40.973Z,47.92
2018-02-14T15:21:34.237Z,48.01
2018-02-14T15:22:34.155Z,47.92
2018-02-14T15:24:27.412Z,47.73
2018-02-14T15:25:27.339Z,47.73
2018-02-14T15:27:20.616Z,47.92
2018-02-14T15:28:20.527Z,48.01
2018-02-14T15:30:13.768Z,47.63
2018-02-14T15:31:13.696Z,47.73
2018-02-14T15:33:06.959Z,48.20
2018-02-14T15:34:06.865Z,48.20
2018-02-14T15:36:00.249Z,48.39
2018-02-14T15:37:00.040Z,48.20
2018-02-14T15:38:53.413Z,47.99
2018-02-14T15:39:53.339Z,48.08
2018-02-14T15:41:46.612Z,48.27
2018-02-14T15:42:46.522Z,48.18
2018-02-14T15:44:39.773Z,48.08
2018-02-14T15:45:39.698Z,48.36
2018-02-14T15:47:32.966Z,48.27
2018-02-14T15:48:32.870Z,48.36
2018-02-14T15:50:26.127Z,48.65
2018-02-14T15:51:26.052Z,49.13
2018-02-14T15:53:19.430Z,49.13
2018-02-14T15:54:19.339Z,48.94
2018-02-14T15:56:12.616Z,49.41
2018-02-14T15:57:12.525Z,48.94
2018-02-14T15:59:05.767Z,49.22
2018-02-14T16:00:05.696Z,49.69
2018-02-14T16:01:58.966Z,49.60
2018-02-14T16:02:58.876Z,49.79
2018-02-14T16:04:52.116Z,49.60
2018-02-14T16:05:52.039Z,49.79
2018-02-14T16:07:45.437Z,49.88
2018-02-14T16:08:45.344Z,49.79
2018-02-14T16:10:38.612Z,49.88
2018-02-14T16:11:38.535Z,50.17
2018-02-14T16:13:31.791Z,50.26
2018-02-14T16:14:31.717Z,50.83
2018-02-14T16:16:25.087Z,51.47
2018-02-14T16:17:24.887Z,51.47
2018-02-14T16:19:18.163Z,51.18
2018-02-14T16:20:18.053Z,51.47
2018-02-14T16:22:11.431Z,51.28
2018-02-14T16:23:11.339Z,51.09
2018-02-14T16:25:04.590Z,50.99
2018-02-14T16:26:04.522Z,51.37
2018-02-14T16:27:57.793Z,50.99
2018-02-14T16:28:57.694Z,51.18
2018-02-14T16:30:50.964Z,51.66
2018-02-14T16:31:50.875Z,51.18
2018-02-14T16:33:44.150Z,51.18
2018-02-14T16:34:44.058Z,51.37
2018-02-14T16:36:37.431Z,50.81
2018-02-14T16:37:37.336Z,51.18
2018-02-14T16:39:30.593Z,50.90
2018-02-14T16:40:30.514Z,51.66
2018-02-14T16:42:23.786Z,50.81
2018-02-14T16:43:23.694Z,51.09
2018-02-14T16:45:17.057Z,50.71
2018-02-14T16:46:16.863Z,51.28
2018-02-14T16:48:10.134Z,51.18
2018-02-14T16:49:10.048Z,50.90
2018-02-14T16:51:03.411Z,51.28
2018-02-14T16:52:03.335Z,51.28
2018-02-14T16:53:56.595Z,51.54
2018-02-14T16:54:56.500Z,51.35
2018-02-14T16:56:49.881Z,51.26
2018-02-14T16:57:49.668Z,51.26
2018-02-14T16:59:43.032Z,51.64
2018-02-14T17:00:42.852Z,51.54
2018-02-14T17:02:36.121Z,51.26
2018-02-14T17:03:36.028Z,51.26
2018-02-14T17:05:29.416Z,51.82
2018-02-14T17:06:29.339Z,52.01
2018-02-14T17:08:22.607Z,52.39
2018-02-14T17:09:22.516Z,51.73
2018-02-14T17:11:15.767Z,52.20
2018-02-14T17:12:15.695Z,51.73
2018-02-14T17:14:08.966Z,52.20
2018-02-14T17:15:08.871Z,52.39
2018-02-14T17:17:02.148Z,52.01
2018-02-14T17:18:02.062Z,52.29
2018-02-14T17:19:55.293Z,52.11
2018-02-14T17:20:55.215Z,52.20
2018-02-14T17:22:48.487Z,52.39
2018-02-14T17:23:48.395Z,52.87
2018-02-14T17:25:41.760Z,52.77
2018-02-14T17:26:41.572Z,52.29
2018-02-14T17:28:34.843Z,52.58
2018-02-14T17:29:34.751Z,52.39
2018-02-14T17:31:28.001Z,52.68
2018-02-14T17:32:27.936Z,52.87
2018-02-14T17:34:21.204Z,52.58
2018-02-14T17:35:21.113Z,52.87
2018-02-14T17:37:14.372Z,53.06
2018-02-14T17:38:14.280Z,52.58
2018-02-14T17:40:07.519Z,52.58
2018-02-14T17:41:07.447Z,52.94
2018-02-14T17:43:00.705Z,52.48
2018-02-14T17:44:00.612Z,52.65
2018-02-14T17:45:53.867Z,53.06
2018-02-14T17:46:53.790Z,52.75
2018-02-14T17:48:47.064Z,53.31
2018-02-14T17:49:46.969Z,53.41
2018-02-14T17:51:40.221Z,53.13
2018-02-14T17:52:40.147Z,53.50
2018-02-14T17:54:33.423Z,53.97
2018-02-14T17:55:33.331Z,53.50
2018-02-14T17:57:26.600Z,53.41
2018-02-14T17:58:26.508Z,53.88
2018-02-14T18:00:19.752Z,53.88
2018-02-14T18:01:19.674Z,53.31
2018-02-14T18:03:12.933Z,53.50
2018-02-14T18:04:12.839Z,53.31
2018-02-14T18:06:06.096Z,53.50
2018-02-14T18:07:06.018Z,53.59
2018-02-14T18:08:59.424Z,53.50
2018-02-14T18:09:59.356Z,53.69
2018-02-14T18:11:52.570Z,53.50
2018-02-14T18:12:52.498Z,53.69
2018-02-14T18:14:45.753Z,53.97
2018-02-14T18:15:45.659Z,54.16
2018-02-14T18:17:38.918Z,54.07
2018-02-14T18:18:38.823Z,53.97
2018-02-14T18:20:32.054Z,54.45
2018-02-14T18:21:31.979Z,54.64
2018-02-14T18:23:25.241Z,54.45
2018-02-14T18:24:25.149Z,54.07
2018-02-14T18:26:18.386Z,53.88
2018-02-14T18:27:18.310Z,53.88
2018-02-14T18:29:11.567Z,53.50
2018-02-14T18:30:11.472Z,53.31
2018-02-14T18:32:04.711Z,53.13
2018-02-14T18:33:04.641Z,53.50
2018-02-14T18:34:57.900Z,53.22